Time;durP1;ratioP1;P1;durP2;ratioP2;P2;SDS_P1;SDS_P2;PMS_P1;PMS_P2;Temp;Humidity;BMP_temperature;BMP_pressure;BME280_temperature;BME280_humidity;BME280_pressure;Samples;Min_cycle;Max_cycle;Signal;HPM_P1;HPM_P2
2022/11/15 00:01:37;;;;;;;5.27;4.87;;;10.60;99.90;;;;;;5013643;28;20702;-75
2022/11/15 00:04:03;;;;;;;5.50;5.00;;;10.70;99.90;;;;;;5013547;28;20185;-76
2022/11/15 00:06:29;;;;;;;5.63;5.13;;;10.70;99.90;;;;;;5012293;28;20796;-76
2022/11/15 00:08:57;;;;;;;5.90;5.30;;;10.60;99.90;;;;;;5013695;28;20417;-76
2022/11/15 00:11:23;;;;;;;6.70;5.40;;;10.70;99.90;;;;;;5014234;28;20512;-75
2022/11/15 00:13:48;;;;;;;6.00;5.50;;;10.70;99.90;;;;;;5013241;28;20525;-75
2022/11/15 00:16:14;;;;;;;6.10;5.47;;;10.70;99.90;;;;;;5015946;28;20186;-76
2022/11/15 00:18:39;;;;;;;8.30;4.83;;;10.70;99.90;;;;;;5013340;28;20231;-76
2022/11/15 00:21:11;;;;;;;6.10;5.40;;;10.60;99.90;;;;;;5012035;28;20184;-75
2022/11/15 00:23:37;;;;;;;8.07;5.63;;;10.60;99.90;;;;;;5013141;28;20613;-76
2022/11/15 00:26:03;;;;;;;6.50;5.10;;;10.60;99.90;;;;;;5013178;28;20407;-75
2022/11/15 00:28:29;;;;;;;6.33;5.60;;;10.60;99.90;;;;;;5013675;28;20608;-76
2022/11/15 00:31:00;;;;;;;5.80;5.17;;;10.60;99.90;;;;;;5013998;28;20183;-75
2022/11/15 00:33:26;;;;;;;7.13;5.17;;;10.50;99.90;;;;;;5013685;28;20870;-76
2022/11/15 00:35:52;;;;;;;6.53;5.87;;;10.60;99.90;;;;;;5013370;28;20436;-77
2022/11/15 00:38:17;;;;;;;15.30;9.70;;;10.70;99.90;;;;;;5013179;28;20190;-75
2022/11/15 00:40:43;;;;;;;8.03;6.33;;;10.70;99.90;;;;;;5013269;28;20248;-77
2022/11/15 00:43:08;;;;;;;6.73;5.57;;;10.70;99.90;;;;;;5013764;28;20192;-74
2022/11/15 00:45:34;;;;;;;9.00;6.03;;;10.70;99.90;;;;;;5010757;28;20555;-76
2022/11/15 00:47:59;;;;;;;9.80;6.67;;;10.70;99.90;;;;;;5015222;28;20538;-75
2022/11/15 00:50:25;;;;;;;6.53;5.83;;;10.70;99.90;;;;;;5016689;28;20177;-75
2022/11/15 00:52:50;;;;;;;7.80;5.80;;;10.70;99.90;;;;;;5015193;28;20176;-75
2022/11/15 00:55:18;;;;;;;7.90;6.10;;;10.60;99.90;;;;;;5015598;28;20538;-76
2022/11/15 00:57:44;;;;;;;7.40;5.87;;;10.50;99.90;;;;;;5014961;28;20777;-75
2022/11/15 01:00:10;;;;;;;7.30;5.70;;;10.40;99.90;;;;;;5016479;28;20817;-75
2022/11/15 01:02:35;;;;;;;7.60;5.10;;;10.40;99.90;;;;;;5016590;28;20392;-77
2022/11/15 01:05:01;;;;;;;8.60;5.60;;;10.50;99.90;;;;;;5016233;28;20909;-75
2022/11/15 01:07:27;;;;;;;6.67;4.70;;;10.50;99.90;;;;;;5015101;28;20200;-76
2022/11/15 01:09:52;;;;;;;7.73;5.00;;;10.50;99.90;;;;;;5014923;28;20183;-76
2022/11/15 01:12:18;;;;;;;5.47;4.97;;;10.50;99.90;;;;;;5015129;28;20174;-74
2022/11/15 01:14:43;;;;;;;6.57;5.13;;;10.50;99.90;;;;;;5015901;28;20202;-76
2022/11/15 01:17:09;;;;;;;8.73;4.70;;;10.50;99.90;;;;;;5015954;28;20192;-74
2022/11/15 01:19:34;;;;;;;5.27;4.10;;;10.40;99.90;;;;;;5015750;28;20694;-75
2022/11/15 01:22:00;;;;;;;5.07;4.43;;;10.40;99.90;;;;;;5016105;28;20169;-75
2022/11/15 01:24:26;;;;;;;5.47;4.00;;;10.30;99.90;;;;;;5015785;28;20188;-75
2022/11/15 01:26:51;;;;;;;4.43;3.60;;;10.20;99.90;;;;;;5015802;28;20172;-75
2022/11/15 01:29:17;;;;;;;5.50;3.60;;;10.10;99.90;;;;;;5016200;28;20182;-75
2022/11/15 01:31:42;;;;;;;4.77;4.00;;;10.10;99.90;;;;;;5017207;28;20169;-76
2022/11/15 01:34:08;;;;;;;4.37;3.40;;;10.00;99.90;;;;;;5015737;28;20193;-76
2022/11/15 01:36:33;;;;;;;3.60;3.30;;;9.90;99.90;;;;;;5015368;28;20589;-76
2022/11/15 01:38:59;;;;;;;3.80;3.33;;;9.90;99.90;;;;;;5014229;28;20559;-75
2022/11/15 01:41:28;;;;;;;3.80;3.27;;;9.90;99.90;;;;;;5015467;28;20213;-75
2022/11/15 01:43:55;;;;;;;4.70;3.40;;;9.70;99.90;;;;;;5015310;28;20599;-76
2022/11/15 01:46:21;;;;;;;5.53;2.93;;;9.60;99.90;;;;;;5014865;28;21009;-76
2022/11/15 01:48:47;;;;;;;2.63;2.40;;;9.70;99.90;;;;;;5015241;28;20421;-76
2022/11/15 01:51:15;;;;;;;4.80;3.77;;;9.70;99.90;;;;;;5014918;28;20172;-75
2022/11/15 01:53:45;;;;;;;2.77;2.50;;;9.60;99.90;;;;;;5014869;28;20949;-75
2022/11/15 01:56:15;;;;;;;3.20;2.57;;;9.60;99.90;;;;;;5015066;28;20415;-76
2022/11/15 01:58:42;;;;;;;3.43;3.13;;;9.60;99.90;;;;;;5012753;28;20550;-76
2022/11/15 02:01:08;;;;;;;3.73;2.90;;;9.50;99.90;;;;;;5014995;28;20441;-76
2022/11/15 02:04:02;;;;;;;7.43;3.07;;;9.50;99.90;;;;;;5015103;28;20501;-74
2022/11/15 02:06:27;;;;;;;3.97;3.30;;;9.40;99.90;;;;;;5013470;28;20196;-76
2022/11/15 02:08:54;;;;;;;5.00;3.50;;;9.40;99.90;;;;;;5014859;28;20776;-76
2022/11/15 02:11:20;;;;;;;2.93;2.60;;;9.50;99.90;;;;;;5014856;28;20640;-75
2022/11/15 02:13:46;;;;;;;3.70;2.70;;;9.50;99.90;;;;;;5014821;28;20541;-75
2022/11/15 02:16:26;;;;;;;4.17;3.33;;;9.50;99.90;;;;;;5017466;28;20265;-76
2022/11/15 02:18:59;;;;;;;4.50;3.70;;;9.70;99.90;;;;;;5014700;28;20195;-76
2022/11/15 02:21:27;;;;;;;5.30;3.53;;;9.60;99.90;;;;;;5014832;28;20387;-76
2022/11/15 02:24:37;;;;;;;5.00;3.40;;;9.50;99.90;;;;;;5014126;28;20422;-76
2022/11/15 02:27:15;;;;;;;7.00;3.17;;;9.50;99.90;;;;;;5014895;28;20388;-76
2022/11/15 02:30:03;;;;;;;4.20;2.60;;;9.50;99.90;;;;;;5014911;28;20391;-75
2022/11/15 02:32:49;;;;;;;3.47;2.77;;;9.40;99.90;;;;;;5014755;28;20441;-76
2022/11/15 02:35:21;;;;;;;4.03;3.60;;;9.40;99.90;;;;;;5012304;28;20408;-75
2022/11/15 02:37:56;;;;;;;4.43;2.77;;;9.40;99.90;;;;;;5014043;28;20932;-75
2022/11/15 02:41:02;;;;;;;3.67;3.20;;;9.60;99.90;;;;;;5014246;28;21023;-76
2022/11/15 02:43:57;;;;;;;3.93;3.30;;;9.40;99.90;;;;;;5007492;28;20437;-75
2022/11/15 02:49:31;;;;;;;3.00;2.70;;;9.60;99.90;;;;;;5014598;28;20379;-76
2022/11/15 02:51:56;;;;;;;4.10;3.00;;;9.60;99.90;;;;;;5014434;28;20396;-75
2022/11/15 02:54:25;;;;;;;3.80;3.17;;;9.60;99.90;;;;;;5013113;28;20473;-77
2022/11/15 02:56:59;;;;;;;3.83;3.30;;;9.70;99.90;;;;;;5014429;28;20184;-75
2022/11/15 02:59:36;;;;;;;3.50;2.90;;;9.50;99.90;;;;;;5014748;28;20935;-75
2022/11/15 03:02:16;;;;;;;3.57;3.00;;;9.60;99.90;;;;;;5014478;28;20517;-76
2022/11/15 03:04:51;;;;;;;2.97;2.73;;;9.70;99.90;;;;;;5013955;28;20418;-76
2022/11/15 03:07:51;;;;;;;3.73;3.27;;;9.70;99.90;;;;;;5012827;28;20432;-73
2022/11/15 03:10:23;;;;;;;6.13;3.70;;;9.60;99.90;;;;;;5013999;28;20820;-76
2022/11/15 03:12:55;;;;;;;5.40;3.10;;;9.50;99.90;;;;;;5014351;28;20915;-76
2022/11/15 03:15:32;;;;;;;3.27;2.97;;;9.50;99.90;;;;;;5014550;28;20397;-75
2022/11/15 03:18:06;;;;;;;3.33;2.73;;;9.50;99.90;;;;;;5014933;28;20944;-75
2022/11/15 03:20:34;;;;;;;2.70;2.50;;;9.50;99.90;;;;;;5013243;28;20434;-75
2022/11/15 03:23:05;;;;;;;4.07;2.90;;;9.50;99.90;;;;;;5014126;28;20954;-75
2022/11/15 03:25:33;;;;;;;3.10;2.87;;;9.50;99.90;;;;;;5013504;28;20477;-75
2022/11/15 03:28:02;;;;;;;5.10;3.50;;;9.40;99.90;;;;;;5014199;28;20404;-75
2022/11/15 03:30:30;;;;;;;2.80;2.60;;;9.40;99.90;;;;;;5014207;28;20440;-76
2022/11/15 03:32:57;;;;;;;4.43;2.90;;;9.40;99.90;;;;;;5012702;28;20449;-75
2022/11/15 03:35:29;;;;;;;5.47;3.10;;;9.50;99.90;;;;;;5013952;28;20412;-75
2022/11/15 03:38:11;;;;;;;3.43;2.90;;;9.40;99.90;;;;;;5013322;28;20394;-75
2022/11/15 03:40:59;;;;;;;4.47;3.50;;;9.40;99.90;;;;;;5013770;28;20461;-75
2022/11/15 03:43:33;;;;;;;4.17;2.80;;;9.50;99.90;;;;;;5013783;28;20419;-73
2022/11/15 03:46:04;;;;;;;3.63;3.10;;;9.50;99.90;;;;;;5013543;28;20638;-75
2022/11/15 03:48:43;;;;;;;4.07;3.67;;;9.40;99.90;;;;;;5014778;28;20449;-74
2022/11/15 03:51:09;;;;;;;2.70;2.50;;;9.40;99.90;;;;;;5014250;28;20414;-74
2022/11/15 03:53:34;;;;;;;2.67;2.47;;;9.50;99.90;;;;;;5015431;28;20496;-75
2022/11/15 03:56:00;;;;;;;2.90;2.47;;;9.50;99.90;;;;;;5014335;28;20933;-75
2022/11/15 03:58:26;;;;;;;4.43;3.40;;;9.40;99.90;;;;;;5015015;28;20542;-76
2022/11/15 04:00:51;;;;;;;3.93;3.53;;;9.40;99.90;;;;;;5013496;28;20170;-74
2022/11/15 04:03:17;;;;;;;4.60;2.73;;;9.30;99.90;;;;;;5014113;28;20190;-75
2022/11/15 04:05:42;;;;;;;4.70;2.70;;;9.40;99.90;;;;;;5013330;28;20234;-76
2022/11/15 04:08:08;;;;;;;2.90;2.40;;;9.30;99.90;;;;;;5013088;28;20199;-76
2022/11/15 04:10:33;;;;;;;4.40;3.53;;;9.50;99.90;;;;;;5012219;28;20169;-75
2022/11/15 04:12:59;;;;;;;3.50;2.50;;;9.60;99.90;;;;;;5012674;28;20676;-75
2022/11/15 04:15:25;;;;;;;4.20;2.77;;;9.60;99.90;;;;;;5013833;28;20207;-76
2022/11/15 04:17:53;;;;;;;4.60;3.10;;;9.60;99.90;;;;;;5013251;28;20176;-75
2022/11/15 04:25:58;;;;;;;3.33;2.70;;;9.60;99.90;;;;;;5018583;28;20415;-75
2022/11/15 04:28:23;;;;;;;3.43;3.07;;;9.70;99.90;;;;;;5018226;28;20446;-75
2022/11/15 04:30:49;;;;;;;4.93;3.23;;;9.60;99.90;;;;;;5017337;28;20403;-75
2022/11/15 04:33:15;;;;;;;3.40;2.60;;;9.60;99.90;;;;;;5016837;28;20196;-75
2022/11/15 04:35:41;;;;;;;4.27;3.33;;;9.70;99.90;;;;;;5017670;28;20253;-75
2022/11/15 04:38:09;;;;;;;3.20;2.80;;;9.70;99.90;;;;;;5017186;28;20290;-75
2022/11/15 04:40:35;;;;;;;3.20;2.90;;;9.70;99.90;;;;;;5016621;28;20451;-75
2022/11/15 04:43:00;;;;;;;4.20;3.10;;;9.60;99.90;;;;;;5016358;28;20428;-75
2022/11/15 04:45:26;;;;;;;3.30;3.00;;;9.60;99.90;;;;;;5017159;28;20908;-76
2022/11/15 04:47:51;;;;;;;3.73;2.67;;;9.40;99.90;;;;;;5015294;28;20174;-76
2022/11/15 04:50:17;;;;;;;3.77;3.37;;;9.50;99.90;;;;;;5016775;28;20256;-76
2022/11/15 04:52:50;;;;;;;4.00;3.60;;;9.50;99.90;;;;;;5014924;28;20182;-74
2022/11/15 04:55:16;;;;;;;3.70;3.10;;;9.50;99.90;;;;;;5017006;28;20163;-75
2022/11/15 04:57:42;;;;;;;3.70;3.07;;;9.50;99.90;;;;;;5016438;28;20411;-75
2022/11/15 05:00:10;;;;;;;5.07;2.90;;;9.40;99.90;;;;;;5015010;28;20192;-75
2022/11/15 05:05:20;;;;;;;3.03;2.73;;;9.30;99.90;;;;;;5016497;28;20387;-75
2022/11/15 05:07:45;;;;;;;5.30;3.23;;;9.30;99.90;;;;;;5015028;28;20422;-75
2022/11/15 05:10:11;;;;;;;4.20;3.87;;;9.30;99.90;;;;;;5016261;28;20179;-76
2022/11/15 05:12:37;;;;;;;3.37;2.83;;;9.30;99.90;;;;;;5015660;28;20545;-76
2022/11/15 05:15:03;;;;;;;4.57;3.00;;;9.20;99.90;;;;;;5015934;28;20165;-75
2022/11/15 05:17:28;;;;;;;4.33;2.70;;;9.20;99.90;;;;;;5016112;28;20173;-75
2022/11/15 05:19:54;;;;;;;3.83;3.53;;;9.20;99.90;;;;;;5014627;28;20985;-77
2022/11/15 05:22:20;;;;;;;4.47;3.70;;;9.20;99.90;;;;;;5015618;28;20168;-74
2022/11/15 05:24:45;;;;;;;3.90;3.50;;;9.10;99.90;;;;;;5015823;28;20191;-76
2022/11/15 05:27:11;;;;;;;3.70;3.17;;;9.20;99.90;;;;;;5016236;28;20170;-74
2022/11/15 05:29:36;;;;;;;4.40;2.97;;;9.20;99.90;;;;;;5014346;28;20260;-74
2022/11/15 05:32:05;;;;;;;4.40;2.87;;;9.10;99.90;;;;;;5016181;28;20239;-75
2022/11/15 05:34:31;;;;;;;4.90;3.60;;;9.10;99.90;;;;;;5015477;28;20561;-75
2022/11/15 05:36:56;;;;;;;4.37;3.10;;;9.10;99.90;;;;;;5014786;28;20484;-76
2022/11/15 05:39:22;;;;;;;3.70;3.40;;;9.20;99.90;;;;;;5016330;28;20234;-76
2022/11/15 05:41:54;;;;;;;4.00;3.30;;;9.30;99.90;;;;;;5014924;28;20199;-75
2022/11/15 05:44:22;;;;;;;4.33;3.60;;;9.10;99.90;;;;;;5015458;28;20215;-75
2022/11/15 05:46:50;;;;;;;3.03;2.60;;;9.20;99.90;;;;;;5013509;28;20953;-75
2022/11/15 05:49:19;;;;;;;3.53;2.73;;;9.40;99.90;;;;;;5015488;28;20428;-76
2022/11/15 05:51:48;;;;;;;4.43;2.83;;;9.40;99.90;;;;;;5014663;28;20532;-76
2022/11/15 05:54:14;;;;;;;7.00;3.80;;;9.40;99.90;;;;;;5014843;28;20469;-76
2022/11/15 05:56:40;;;;;;;4.07;3.10;;;9.40;99.90;;;;;;5015148;28;21011;-75
2022/11/15 05:59:07;;;;;;;5.40;3.50;;;9.40;99.90;;;;;;5015257;28;20461;-75
2022/11/15 06:01:33;;;;;;;4.50;3.03;;;9.40;99.90;;;;;;5013611;28;20210;-75
2022/11/15 06:03:59;;;;;;;3.73;2.73;;;9.50;99.90;;;;;;5014457;28;20819;-75
2022/11/15 06:06:24;;;;;;;4.60;2.67;;;9.40;99.90;;;;;;5014895;28;20644;-75
2022/11/15 06:08:50;;;;;;;4.40;3.70;;;9.40;99.90;;;;;;5014232;28;20250;-75
2022/11/15 06:11:15;;;;;;;3.40;3.00;;;9.40;99.90;;;;;;5014918;28;20172;-76
2022/11/15 06:13:41;;;;;;;5.70;3.10;;;9.40;99.90;;;;;;5016431;28;20211;-75
2022/11/15 06:16:07;;;;;;;4.47;3.00;;;9.30;99.90;;;;;;5015417;28;20176;-75
2022/11/15 06:18:33;;;;;;;5.63;3.73;;;9.40;99.90;;;;;;5015635;28;20617;-75
2022/11/15 06:21:00;;;;;;;5.00;3.30;;;9.40;99.90;;;;;;5013872;28;20183;-76
2022/11/15 06:23:25;;;;;;;3.90;2.67;;;9.50;99.90;;;;;;5014066;28;20447;-75
2022/11/15 06:25:51;;;;;;;3.80;3.50;;;9.50;99.90;;;;;;5013151;28;20414;-76
2022/11/15 06:28:16;;;;;;;6.30;4.40;;;9.50;99.90;;;;;;5013836;28;20621;-75
2022/11/15 06:30:42;;;;;;;4.63;3.83;;;9.40;99.90;;;;;;5014814;28;20180;-75
2022/11/15 06:33:08;;;;;;;5.93;3.70;;;9.40;99.90;;;;;;5013784;28;20214;-76
2022/11/15 06:35:35;;;;;;;3.37;3.07;;;9.50;99.90;;;;;;5014204;28;20653;-75
2022/11/15 06:38:09;;;;;;;4.73;3.83;;;9.50;99.90;;;;;;5009329;28;20438;-76
2022/11/15 06:40:36;;;;;;;5.00;4.50;;;9.50;99.90;;;;;;4995337;28;20449;-75
2022/11/15 06:43:02;;;;;;;5.73;4.03;;;9.50;99.90;;;;;;4995065;28;20476;-75
2022/11/15 06:45:27;;;;;;;5.43;4.40;;;9.60;99.90;;;;;;4999695;28;20424;-75
2022/11/15 06:47:53;;;;;;;12.33;3.90;;;9.60;99.90;;;;;;5014529;28;20410;-76
2022/11/15 06:50:19;;;;;;;5.90;4.10;;;9.70;99.90;;;;;;5014409;28;20172;-76
2022/11/15 06:52:44;;;;;;;5.50;3.43;;;9.70;99.90;;;;;;5014636;28;20168;-76
2022/11/15 06:55:10;;;;;;;6.17;4.13;;;9.70;99.90;;;;;;5014230;28;20484;-75
2022/11/15 06:57:36;;;;;;;9.40;6.20;;;9.80;99.90;;;;;;5012950;28;20251;-75
2022/11/15 07:00:04;;;;;;;10.67;9.57;;;9.70;99.90;;;;;;5013942;28;20250;-75
2022/11/15 07:02:30;;;;;;;10.00;5.07;;;9.80;99.90;;;;;;5008714;28;20428;-76
2022/11/15 07:04:56;;;;;;;5.50;4.90;;;9.90;99.90;;;;;;4994365;28;20420;-75
2022/11/15 07:07:21;;;;;;;6.67;5.50;;;10.00;99.90;;;;;;4997557;28;20427;-75
2022/11/15 07:09:47;;;;;;;7.90;5.47;;;10.00;99.90;;;;;;5014100;28;20536;-76
2022/11/15 07:12:13;;;;;;;5.70;5.20;;;10.10;99.90;;;;;;5014321;28;20188;-74
2022/11/15 07:14:38;;;;;;;6.43;5.73;;;10.10;99.90;;;;;;5012982;28;20192;-76
2022/11/15 07:17:04;;;;;;;4.97;4.50;;;10.20;99.90;;;;;;5013015;28;20242;-75
2022/11/15 07:19:30;;;;;;;4.90;4.40;;;10.20;99.90;;;;;;5014100;28;20263;-76
2022/11/15 07:21:56;;;;;;;5.33;4.47;;;10.30;99.90;;;;;;5013467;28;20447;-74
2022/11/15 07:24:22;;;;;;;7.53;4.20;;;10.40;99.90;;;;;;5012705;28;20447;-75
2022/11/15 07:26:47;;;;;;;5.47;4.90;;;10.40;99.90;;;;;;5013817;28;20640;-76
2022/11/15 07:29:13;;;;;;;5.37;4.87;;;10.50;99.90;;;;;;5013489;28;20662;-75
2022/11/15 07:31:38;;;;;;;4.33;3.93;;;10.60;99.90;;;;;;5012475;28;20181;-72
2022/11/15 07:34:04;;;;;;;5.93;4.80;;;10.70;99.90;;;;;;5012185;28;20661;-73
2022/11/15 07:36:30;;;;;;;5.10;4.60;;;10.80;99.90;;;;;;5013992;28;20698;-73
2022/11/15 07:38:55;;;;;;;5.50;4.97;;;10.90;99.90;;;;;;5013374;28;20199;-75
2022/11/15 07:41:21;;;;;;;4.87;4.37;;;11.00;99.90;;;;;;5013515;28;20174;-74
2022/11/15 07:43:46;;;;;;;6.20;4.53;;;11.20;99.90;;;;;;5013700;28;20189;-76
2022/11/15 07:46:12;;;;;;;5.53;5.07;;;11.40;99.90;;;;;;5013681;28;20658;-74
2022/11/15 07:48:39;;;;;;;5.00;4.43;;;11.60;99.90;;;;;;5014204;28;20638;-74
2022/11/15 07:51:06;;;;;;;6.07;4.40;;;11.80;99.90;;;;;;5014140;28;20169;-75
2022/11/15 07:53:32;;;;;;;7.27;5.10;;;12.00;99.90;;;;;;5013912;28;20461;-75
2022/11/15 07:55:58;;;;;;;9.43;6.70;;;12.10;99.90;;;;;;5014201;28;20407;-74
2022/11/15 07:58:23;;;;;;;7.60;5.63;;;12.30;99.90;;;;;;5016419;28;20619;-75
2022/11/15 08:00:49;;;;;;;6.20;5.47;;;11.90;99.90;;;;;;5018616;28;20657;-74
2022/11/15 08:03:16;;;;;;;5.83;5.17;;;11.90;99.90;;;;;;5022210;28;20188;-73
2022/11/15 08:05:42;;;;;;;10.67;6.63;;;12.20;99.90;;;;;;5019625;28;20220;-75
2022/11/15 08:08:10;;;;;;;7.30;6.13;;;12.50;99.90;;;;;;5016838;28;20436;-74
2022/11/15 08:10:36;;;;;;;10.43;7.37;;;12.60;99.90;;;;;;5017115;28;20436;-76
2022/11/15 08:13:04;;;;;;;9.83;8.00;;;12.80;99.90;;;;;;5017175;28;20947;-75
2022/11/15 08:15:31;;;;;;;8.70;6.00;;;12.90;99.90;;;;;;5017240;28;20926;-76
2022/11/15 08:17:58;;;;;;;6.60;5.70;;;12.90;99.90;;;;;;5019735;28;20420;-76
2022/11/15 08:20:25;;;;;;;4.90;4.30;;;12.80;99.90;;;;;;5017171;28;20602;-75
2022/11/15 08:22:51;;;;;;;5.07;4.67;;;12.60;99.90;;;;;;5015876;28;20430;-75
2022/11/15 08:25:16;;;;;;;11.20;5.97;;;12.70;99.90;;;;;;5017347;28;20410;-76
2022/11/15 08:27:42;;;;;;;8.67;5.60;;;12.70;99.90;;;;;;5016894;28;20226;-74
2022/11/15 08:30:08;;;;;;;6.23;5.10;;;12.50;99.90;;;;;;5016885;28;20187;-74
2022/11/15 08:32:34;;;;;;;8.00;5.40;;;12.50;99.90;;;;;;5016937;28;20181;-75
2022/11/15 08:34:59;;;;;;;7.93;4.50;;;12.60;99.90;;;;;;5017031;28;20516;-77
2022/11/15 08:37:25;;;;;;;5.47;4.90;;;12.60;99.90;;;;;;5017062;28;20322;-76
2022/11/15 08:39:50;;;;;;;7.50;5.60;;;12.70;99.90;;;;;;5015527;28;20558;-72
2022/11/15 08:42:16;;;;;;;6.90;5.63;;;12.70;99.90;;;;;;5016818;28;20176;-72
2022/11/15 08:44:42;;;;;;;7.07;5.03;;;12.70;99.90;;;;;;5016624;28;20190;-73
2022/11/15 08:47:10;;;;;;;5.00;4.50;;;12.80;99.90;;;;;;5015622;28;20189;-73
2022/11/15 08:49:36;;;;;;;6.17;4.53;;;12.80;99.90;;;;;;5016650;28;20175;-72
2022/11/15 08:52:01;;;;;;;5.10;4.33;;;13.00;99.90;;;;;;5015439;28;20783;-74
2022/11/15 08:54:27;;;;;;;5.00;4.17;;;13.10;99.90;;;;;;5016956;28;20214;-75
2022/11/15 08:56:53;;;;;;;6.80;5.13;;;13.20;99.90;;;;;;5016709;28;20182;-76
2022/11/15 08:59:18;;;;;;;8.20;5.50;;;13.30;99.90;;;;;;5015368;28;20200;-74
2022/11/15 09:01:44;;;;;;;6.53;4.57;;;13.50;99.90;;;;;;5016349;28;20178;-75
2022/11/15 09:04:09;;;;;;;5.40;4.90;;;13.60;99.90;;;;;;5016200;28;20250;-76
2022/11/15 09:06:35;;;;;;;5.47;4.83;;;13.70;99.90;;;;;;5016039;28;20206;-75
2022/11/15 09:09:01;;;;;;;5.60;4.93;;;13.70;99.90;;;;;;5014439;28;20632;-74
2022/11/15 09:11:27;;;;;;;6.60;5.73;;;13.60;99.90;;;;;;5016374;28;20202;-77
2022/11/15 09:13:53;;;;;;;6.00;5.50;;;13.50;99.90;;;;;;5015973;28;20433;-74
2022/11/15 09:16:18;;;;;;;9.73;6.43;;;13.30;99.90;;;;;;5016264;28;20260;-74
2022/11/15 09:18:44;;;;;;;8.93;6.20;;;13.30;99.90;;;;;;5015633;28;20185;-74
2022/11/15 09:21:10;;;;;;;8.30;6.07;;;13.50;99.90;;;;;;5015835;28;20180;-75
2022/11/15 09:23:35;;;;;;;6.80;5.87;;;14.00;99.90;;;;;;5015437;28;20559;-74
2022/11/15 09:26:03;;;;;;;7.63;5.77;;;14.50;99.90;;;;;;5016152;28;20771;-75
2022/11/15 09:28:29;;;;;;;7.40;5.43;;;14.80;99.90;;;;;;5015839;28;20205;-76
2022/11/15 09:31:00;;;;;;;5.60;5.10;;;15.00;99.90;;;;;;5015937;28;20448;-74
2022/11/15 09:33:26;;;;;;;5.10;4.60;;;15.20;99.90;;;;;;5015476;28;20455;-75
2022/11/15 09:35:51;;;;;;;6.43;5.23;;;15.00;99.90;;;;;;5015644;28;20875;-75
2022/11/15 09:38:18;;;;;;;7.27;5.50;;;14.70;99.90;;;;;;5015789;28;20462;-75
2022/11/15 09:40:45;;;;;;;6.50;5.40;;;14.70;99.90;;;;;;5015581;28;20274;-75
2022/11/15 09:43:37;;;;;;;5.63;5.10;;;14.50;99.90;;;;;;5015878;28;20442;-74
2022/11/15 09:46:20;;;;;;;7.83;6.03;;;14.70;99.90;;;;;;5015437;28;20385;-76
2022/11/15 09:48:49;;;;;;;7.83;5.10;;;14.60;99.90;;;;;;5015507;28;20386;-76
2022/11/15 09:51:33;;;;;;;9.00;6.33;;;14.70;99.90;;;;;;5015496;28;20490;-76
2022/11/15 09:54:08;;;;;;;8.73;5.03;;;14.90;99.90;;;;;;5015200;28;20454;-76
2022/11/15 09:56:37;;;;;;;6.50;5.90;;;15.60;99.90;;;;;;5015403;28;20902;-76
2022/11/15 09:59:37;;;;;;;10.87;6.03;;;16.00;99.90;;;;;;5015246;28;20457;-75
2022/11/15 10:02:36;;;;;;;6.40;5.67;;;16.40;99.90;;;;;;5015198;28;20428;-75
2022/11/15 10:05:02;;;;;;;7.90;4.60;;;16.30;99.90;;;;;;5015458;28;20438;-75
2022/11/15 10:07:51;;;;;;;8.23;5.40;;;16.70;99.90;;;;;;5015143;28;20435;-74
2022/11/15 10:10:31;;;;;;;6.50;4.90;;;16.90;99.90;;;;;;5011899;28;20411;-77
2022/11/15 10:12:58;;;;;;;9.70;5.37;;;17.10;99.90;;;;;;5014115;28;21018;-73
2022/11/15 10:15:24;;;;;;;5.20;4.10;;;17.20;99.90;;;;;;5015392;28;20434;-76
2022/11/15 10:18:06;;;;;;;5.10;4.57;;;17.20;99.90;;;;;;5015621;28;20498;-76
2022/11/15 10:20:42;;;;;;;5.77;4.63;;;17.20;99.90;;;;;;5013111;28;20490;-77
2022/11/15 10:23:13;;;;;;;4.60;4.13;;;17.30;99.90;;;;;;5013446;28;20508;-72
2022/11/15 10:25:39;;;;;;;5.30;4.00;;;17.30;99.90;;;;;;5014858;28;20490;-73
2022/11/15 10:28:21;;;;;;;5.20;4.60;;;17.40;99.90;;;;;;5014176;28;20458;-73
2022/11/15 10:30:49;;;;;;;7.90;4.80;;;17.50;99.90;;;;;;5013508;28;20175;-74
2022/11/15 10:33:44;;;;;;;5.93;4.20;;;17.50;99.90;;;;;;5014818;28;20477;-72
2022/11/15 10:36:13;;;;;;;5.33;4.20;;;17.50;99.90;;;;;;5014300;28;20526;-73
2022/11/15 10:38:50;;;;;;;4.87;3.50;;;17.60;99.90;;;;;;5014917;28;20775;-73
2022/11/15 10:41:31;;;;;;;8.43;5.40;;;17.60;99.90;;;;;;5013299;28;20944;-75
2022/11/15 10:44:11;;;;;;;4.87;3.63;;;17.60;99.90;;;;;;5014209;28;20433;-75
2022/11/15 10:46:41;;;;;;;6.67;3.70;;;17.60;99.90;;;;;;5012174;28;20482;-73
2022/11/15 10:49:17;;;;;;;3.00;2.60;;;17.60;99.90;;;;;;5014101;28;20446;-71
2022/11/15 10:51:53;;;;;;;3.67;3.37;;;17.30;99.90;;;;;;5014613;28;20784;-73
2022/11/15 10:55:00;;;;;;;4.27;3.77;;;17.20;99.90;;;;;;5012644;28;20474;-72
2022/11/15 10:57:31;;;;;;;4.33;2.77;;;17.20;99.90;;;;;;5013441;28;20542;-72
2022/11/15 11:00:20;;;;;;;4.00;2.83;;;17.10;99.90;;;;;;5013051;28;20458;-73
2022/11/15 11:02:58;;;;;;;3.33;2.50;;;17.10;99.90;;;;;;5010549;28;20410;-74
2022/11/15 11:05:36;;;;;;;6.20;3.20;;;17.10;99.90;;;;;;5013982;28;20813;-75
2022/11/15 11:08:21;;;;;;;6.60;3.33;;;16.50;99.90;;;;;;5011473;28;20415;-75
2022/11/15 11:10:57;;;;;;;4.43;2.23;;;16.70;99.90;;;;;;5014032;28;20474;-75
2022/11/15 11:13:24;;;;;;;3.20;2.47;;;16.60;99.90;;;;;;5013197;28;20533;-75
2022/11/15 11:16:06;;;;;;;3.93;2.47;;;16.40;99.90;;;;;;5013762;28;20450;-74
2022/11/15 11:18:44;;;;;;;7.10;3.70;;;15.90;99.90;;;;;;5013354;28;20821;-74
2022/11/15 11:21:14;;;;;;;3.70;3.00;;;16.00;99.90;;;;;;5014058;28;20603;-74
2022/11/15 11:23:53;;;;;;;3.90;2.73;;;16.00;99.90;;;;;;5012692;28;20518;-72
2022/11/15 11:26:51;;;;;;;4.47;2.70;;;16.20;99.90;;;;;;5014691;28;20873;-73
2022/11/15 11:29:25;;;;;;;3.40;3.07;;;16.40;99.90;;;;;;5012737;28;20796;-74
2022/11/15 11:32:09;;;;;;;7.50;3.17;;;16.20;99.90;;;;;;5012819;28;20438;-74
2022/11/15 11:34:49;;;;;;;4.93;3.23;;;16.40;99.90;;;;;;5012992;28;20967;-75
2022/11/15 11:37:24;;;;;;;5.23;3.17;;;16.30;99.90;;;;;;5014138;28;20386;-73
2022/11/15 11:39:56;;;;;;;5.30;2.90;;;16.40;99.90;;;;;;5012078;28;20450;-76
2022/11/15 11:42:36;;;;;;;4.47;3.03;;;16.60;99.90;;;;;;5013305;28;20406;-75
2022/11/15 11:45:14;;;;;;;3.43;3.10;;;16.90;99.90;;;;;;5013850;28;20391;-77
2022/11/15 11:48:03;;;;;;;2.77;2.40;;;16.90;99.90;;;;;;5014188;28;20371;-74
2022/11/15 11:50:29;;;;;;;6.40;2.97;;;16.70;99.90;;;;;;5013338;28;20492;-74
2022/11/15 11:53:04;;;;;;;5.07;2.73;;;16.70;99.90;;;;;;5013305;28;20455;-73
2022/11/15 11:55:39;;;;;;;4.83;3.57;;;16.90;99.90;;;;;;5013453;28;20182;-74
2022/11/15 11:58:16;;;;;;;3.27;2.90;;;17.10;99.90;;;;;;5013626;28;20764;-75
2022/11/15 12:01:06;;;;;;;4.10;2.70;;;17.40;99.90;;;;;;5012392;28;20498;-75
2022/11/15 12:03:43;;;;;;;5.30;2.97;;;17.70;99.90;;;;;;5006258;28;20903;-74
2022/11/15 12:06:14;;;;;;;5.50;3.10;;;18.00;99.90;;;;;;5033404;28;20390;-73
2022/11/15 12:08:52;;;;;;;6.23;2.50;;;18.30;99.90;;;;;;5031818;28;20468;-74
2022/11/15 12:11:24;;;;;;;7.40;3.00;;;18.40;99.90;;;;;;5032935;28;20443;-71
2022/11/15 12:13:57;;;;;;;3.83;2.87;;;18.40;99.90;;;;;;5027533;28;20530;-71
2022/11/15 12:16:29;;;;;;;4.63;2.90;;;18.80;99.90;;;;;;5013437;28;20393;-71
2022/11/15 12:19:00;;;;;;;6.67;2.77;;;19.20;99.90;;;;;;5013746;28;20472;-75
2022/11/15 12:21:54;;;;;;;6.30;3.57;;;19.10;99.90;;;;;;5013314;28;20392;-74
2022/11/15 12:24:33;;;;;;;4.60;3.07;;;19.00;99.90;;;;;;5012612;28;20478;-74
2022/11/15 12:27:13;;;;;;;4.03;3.13;;;18.80;99.90;;;;;;5013640;28;20734;-74
2022/11/15 12:29:44;;;;;;;5.83;3.80;;;18.70;99.90;;;;;;5012058;28;20479;-74
2022/11/15 12:32:28;;;;;;;5.10;3.20;;;18.30;99.90;;;;;;5013530;28;20410;-74
2022/11/15 12:34:55;;;;;;;4.80;3.63;;;17.60;99.90;;;;;;5012452;28;20573;-74
2022/11/15 12:37:42;;;;;;;5.33;3.63;;;17.40;99.90;;;;;;5013062;28;20438;-74
2022/11/15 12:40:27;;;;;;;7.20;4.00;;;17.30;99.90;;;;;;5012526;28;20457;-74
2022/11/15 12:43:16;;;;;;;4.97;3.33;;;17.10;99.90;;;;;;5014023;28;20403;-74
2022/11/15 12:45:43;;;;;;;5.57;4.00;;;17.20;99.90;;;;;;5012385;28;20430;-75
2022/11/15 12:48:18;;;;;;;5.23;3.07;;;17.20;99.90;;;;;;5016977;28;20407;-74
2022/11/15 12:50:58;;;;;;;3.77;3.40;;;17.20;99.90;;;;;;5015956;28;20406;-74
2022/11/15 12:53:24;;;;;;;4.60;3.20;;;17.30;99.90;;;;;;5015217;28;20837;-74
2022/11/15 12:56:16;;;;;;;3.80;3.40;;;17.00;99.90;;;;;;5015491;28;20552;-74
2022/11/15 12:58:56;;;;;;;4.93;3.30;;;16.90;99.90;;;;;;5016274;28;20207;-74
2022/11/15 13:01:34;;;;;;;4.73;3.50;;;16.90;99.90;;;;;;5016233;28;20410;-74
2022/11/15 13:04:18;;;;;;;7.10;3.20;;;16.80;99.90;;;;;;5015116;28;20438;-75
2022/11/15 13:07:02;;;;;;;4.90;3.50;;;16.80;99.90;;;;;;5016427;28;20392;-74
2022/11/15 13:09:31;;;;;;;6.67;3.37;;;16.60;99.90;;;;;;5016315;28;20438;-75
2022/11/15 13:11:58;;;;;;;4.10;3.63;;;16.50;99.90;;;;;;5016211;28;20406;-74
2022/11/15 13:14:42;;;;;;;4.73;3.87;;;16.50;99.90;;;;;;5014935;28;20449;-73
2022/11/15 13:17:19;;;;;;;5.27;3.37;;;16.40;99.90;;;;;;5016132;28;20410;-75
2022/11/15 13:19:47;;;;;;;7.80;4.27;;;16.20;99.90;;;;;;5016139;28;20848;-73